OKDIR LKTB-EPWA
Flight info
| Callsign | OKDIR |
|---|---|
| Flight time | 1h 3m |
| Altitude | 25000 |
| Route | UPLAV DCT NETIR Z121 SKAVI M985 KOTEK M866 LOGDA |
| Aircraft | BE9L/L-SBDFGRY/SB1 |
Departure
| Time | 2026-05-08 17:11 |
|---|---|
| Airport | Brno-Tuřany Airport (LKTB) |
Arrival
| Time | 2026-05-08 18:14 |
|---|---|
| Airport | Warsaw Chopin Airport (EPWA) |
| Time | Latitude | Longitude | Altitude | Speed | Heading |
|---|---|---|---|---|---|
| 2026-05-08 16:55 | 49.15390 | 16.68967 | 789 ft | 0 kts | 183° |
| 2026-05-08 17:07 | 49.15387 | 16.68967 | 786 ft | 4 kts | 183° |
| 2026-05-08 17:08 | 49.15366 | 16.68908 | 788 ft | 12 kts | 274° |
| 2026-05-08 17:08 | 49.15380 | 16.68728 | 788 ft | 22 kts | 278° |
| 2026-05-08 17:08 | 49.15384 | 16.68524 | 788 ft | 13 kts | 216° |
| 2026-05-08 17:08 | 49.15300 | 16.68507 | 787 ft | 0 kts | 186° |
| 2026-05-08 17:09 | 49.15286 | 16.68504 | 784 ft | 7 kts | 186° |
| 2026-05-08 17:09 | 49.15214 | 16.68515 | 779 ft | 9 kts | 109° |
| 2026-05-08 17:10 | 49.15200 | 16.68673 | 779 ft | 25 kts | 98° |
| 2026-05-08 17:10 | 49.15156 | 16.69172 | 782 ft | 74 kts | 98° |
| 2026-05-08 17:10 | 49.15065 | 16.70206 | 781 ft | 120 kts | 96° |
| 2026-05-08 17:10 | 49.14916 | 16.71602 | 933 ft | 139 kts | 97° |
| 2026-05-08 17:11 | 49.14758 | 16.73061 | 1364 ft | 142 kts | 97° |
| 2026-05-08 17:11 | 49.14628 | 16.74493 | 2057 ft | 133 kts | 96° |
| 2026-05-08 17:11 | 49.14546 | 16.75829 | 2645 ft | 119 kts | 95° |
| 2026-05-08 17:11 | 49.14467 | 16.77109 | 2999 ft | 131 kts | 97° |
| 2026-05-08 17:12 | 49.14335 | 16.78613 | 3198 ft | 157 kts | 98° |
| 2026-05-08 17:12 | 49.14183 | 16.80336 | 3575 ft | 166 kts | 98° |
| 2026-05-08 17:12 | 49.14029 | 16.82106 | 3947 ft | 174 kts | 98° |
| 2026-05-08 17:12 | 49.13864 | 16.83978 | 4382 ft | 175 kts | 99° |
| 2026-05-08 17:13 | 49.13704 | 16.85787 | 4896 ft | 172 kts | 99° |
| 2026-05-08 17:13 | 49.13548 | 16.87585 | 5422 ft | 170 kts | 99° |
| 2026-05-08 17:13 | 49.13390 | 16.89368 | 5949 ft | 169 kts | 100° |
| 2026-05-08 17:13 | 49.13234 | 16.91136 | 6482 ft | 167 kts | 100° |
| 2026-05-08 17:14 | 49.13079 | 16.92892 | 6988 ft | 166 kts | 100° |
| 2026-05-08 17:14 | 49.12925 | 16.94635 | 7500 ft | 166 kts | 100° |
| 2026-05-08 17:14 | 49.12770 | 16.96373 | 8021 ft | 165 kts | 100° |
| 2026-05-08 17:14 | 49.12617 | 16.98103 | 8546 ft | 164 kts | 100° |
| 2026-05-08 17:15 | 49.12464 | 16.99831 | 9080 ft | 164 kts | 99° |
| 2026-05-08 17:15 | 49.12609 | 17.01539 | 9640 ft | 164 kts | 67° |
| 2026-05-08 17:15 | 49.13167 | 17.03056 | 10172 ft | 164 kts | 58° |
| 2026-05-08 17:15 | 49.13740 | 17.04559 | 10672 ft | 163 kts | 59° |
| 2026-05-08 17:16 | 49.14320 | 17.06053 | 11183 ft | 164 kts | 58° |
| 2026-05-08 17:16 | 49.14901 | 17.07549 | 11703 ft | 163 kts | 58° |
| 2026-05-08 17:16 | 49.15478 | 17.09040 | 12228 ft | 163 kts | 58° |
| 2026-05-08 17:16 | 49.16055 | 17.10531 | 12764 ft | 163 kts | 58° |
| 2026-05-08 17:17 | 49.16628 | 17.12011 | 13310 ft | 162 kts | 58° |
| 2026-05-08 17:17 | 49.17012 | 17.12999 | 13591 ft | 168 kts | 58° |
| 2026-05-08 17:17 | 49.17633 | 17.14608 | 13894 ft | 183 kts | 58° |
| 2026-05-08 17:17 | 49.18304 | 17.16350 | 14172 ft | 196 kts | 58° |
| 2026-05-08 17:18 | 49.19014 | 17.18196 | 14452 ft | 206 kts | 59° |
| 2026-05-08 17:18 | 49.19755 | 17.20120 | 14740 ft | 214 kts | 59° |
| 2026-05-08 17:18 | 49.20518 | 17.22102 | 15028 ft | 219 kts | 59° |
| 2026-05-08 17:18 | 49.21296 | 17.24124 | 15316 ft | 223 kts | 59° |
| 2026-05-08 17:19 | 49.22086 | 17.26178 | 15602 ft | 225 kts | 59° |
| 2026-05-08 17:19 | 49.22884 | 17.28255 | 15890 ft | 228 kts | 59° |
| 2026-05-08 17:19 | 49.23692 | 17.30355 | 16182 ft | 230 kts | 59° |
| 2026-05-08 17:19 | 49.24507 | 17.32480 | 16476 ft | 232 kts | 59° |
| 2026-05-08 17:20 | 49.25328 | 17.34620 | 16764 ft | 234 kts | 59° |
| 2026-05-08 17:20 | 49.26156 | 17.36782 | 17063 ft | 236 kts | 59° |
| 2026-05-08 17:20 | 49.26989 | 17.38956 | 17359 ft | 238 kts | 59° |
| 2026-05-08 17:20 | 49.27827 | 17.41148 | 17654 ft | 239 kts | 59° |
| 2026-05-08 17:21 | 49.28672 | 17.43355 | 17959 ft | 241 kts | 59° |
| 2026-05-08 17:21 | 49.29522 | 17.45582 | 18259 ft | 242 kts | 59° |
| 2026-05-08 17:21 | 49.30376 | 17.47818 | 18536 ft | 244 kts | 60° |
| 2026-05-08 17:21 | 49.31234 | 17.50068 | 18800 ft | 246 kts | 60° |
| 2026-05-08 17:22 | 49.32097 | 17.52337 | 19064 ft | 247 kts | 61° |
| 2026-05-08 17:22 | 49.32842 | 17.54708 | 19330 ft | 247 kts | 66° |
| 2026-05-08 17:22 | 49.33626 | 17.57069 | 19602 ft | 250 kts | 63° |
| 2026-05-08 17:22 | 49.34425 | 17.59442 | 19875 ft | 251 kts | 65° |
| 2026-05-08 17:23 | 49.35198 | 17.61857 | 20148 ft | 253 kts | 66° |
| 2026-05-08 17:23 | 49.35970 | 17.64285 | 20421 ft | 254 kts | 66° |
| 2026-05-08 17:23 | 49.36753 | 17.66726 | 20700 ft | 256 kts | 66° |
| 2026-05-08 17:23 | 49.37541 | 17.69177 | 20981 ft | 257 kts | 66° |
| 2026-05-08 17:24 | 49.38331 | 17.71649 | 21262 ft | 258 kts | 66° |
| 2026-05-08 17:24 | 49.39125 | 17.74133 | 21552 ft | 260 kts | 67° |
| 2026-05-08 17:24 | 49.39926 | 17.76633 | 21840 ft | 262 kts | 67° |
| 2026-05-08 17:24 | 49.40727 | 17.79142 | 22123 ft | 261 kts | 68° |
| 2026-05-08 17:25 | 49.41526 | 17.81657 | 22420 ft | 262 kts | 67° |
| 2026-05-08 17:25 | 49.42332 | 17.84183 | 22716 ft | 265 kts | 68° |
| 2026-05-08 17:25 | 49.43145 | 17.86732 | 23018 ft | 266 kts | 68° |
| 2026-05-08 17:25 | 49.43960 | 17.89298 | 23315 ft | 268 kts | 68° |
| 2026-05-08 17:26 | 49.44770 | 17.91850 | 23622 ft | 270 kts | 68° |
| 2026-05-08 17:26 | 49.45606 | 17.94485 | 23890 ft | 271 kts | 68° |
| 2026-05-08 17:26 | 49.46423 | 17.97062 | 24144 ft | 273 kts | 68° |
| 2026-05-08 17:26 | 49.47255 | 17.99690 | 24401 ft | 274 kts | 68° |
| 2026-05-08 17:27 | 49.48090 | 18.02329 | 24662 ft | 275 kts | 68° |
| 2026-05-08 17:27 | 49.48925 | 18.04974 | 24925 ft | 275 kts | 68° |
| 2026-05-08 17:27 | 49.49769 | 18.07647 | 25061 ft | 282 kts | 68° |
| 2026-05-08 17:27 | 49.50633 | 18.10391 | 25104 ft | 289 kts | 68° |
| 2026-05-08 17:28 | 49.51518 | 18.13204 | 25124 ft | 295 kts | 68° |
| 2026-05-08 17:28 | 49.52421 | 18.16072 | 25135 ft | 300 kts | 68° |
| 2026-05-08 17:28 | 49.53333 | 18.18973 | 25142 ft | 302 kts | 68° |
| 2026-05-08 17:28 | 49.54251 | 18.21896 | 25136 ft | 304 kts | 68° |
| 2026-05-08 17:29 | 49.55171 | 18.24834 | 25140 ft | 305 kts | 67° |
| 2026-05-08 17:29 | 49.56094 | 18.27783 | 25134 ft | 306 kts | 67° |
| 2026-05-08 17:29 | 49.57020 | 18.30743 | 25141 ft | 307 kts | 68° |
| 2026-05-08 17:29 | 49.57945 | 18.33704 | 25140 ft | 306 kts | 67° |
| 2026-05-08 17:30 | 49.58868 | 18.36661 | 25135 ft | 306 kts | 67° |
| 2026-05-08 17:30 | 49.59790 | 18.39622 | 25138 ft | 306 kts | 67° |
| 2026-05-08 17:30 | 49.60711 | 18.42580 | 25135 ft | 306 kts | 67° |
| 2026-05-08 17:30 | 49.61631 | 18.45540 | 25145 ft | 306 kts | 67° |
| 2026-05-08 17:31 | 49.62548 | 18.48495 | 25135 ft | 306 kts | 67° |
| 2026-05-08 17:31 | 49.63465 | 18.51449 | 25130 ft | 305 kts | 67° |
| 2026-05-08 17:31 | 49.64380 | 18.54403 | 25138 ft | 305 kts | 67° |
| 2026-05-08 17:31 | 49.65292 | 18.57353 | 25138 ft | 303 kts | 67° |
| 2026-05-08 17:32 | 49.66201 | 18.60293 | 25131 ft | 304 kts | 67° |
| 2026-05-08 17:32 | 49.67110 | 18.63240 | 25130 ft | 304 kts | 67° |
| 2026-05-08 17:32 | 49.68018 | 18.66188 | 25130 ft | 304 kts | 67° |
| 2026-05-08 17:32 | 49.68926 | 18.69135 | 25130 ft | 304 kts | 67° |
| 2026-05-08 17:33 | 49.69734 | 18.72136 | 25134 ft | 301 kts | 76° |
| 2026-05-08 17:33 | 49.70367 | 18.75216 | 25134 ft | 301 kts | 75° |
| 2026-05-08 17:33 | 49.71032 | 18.78286 | 25134 ft | 301 kts | 75° |
| 2026-05-08 17:33 | 49.71692 | 18.81360 | 25132 ft | 301 kts | 75° |
| 2026-05-08 17:34 | 49.72339 | 18.84440 | 25133 ft | 301 kts | 75° |
| 2026-05-08 17:34 | 49.72984 | 18.87514 | 25138 ft | 300 kts | 75° |
| 2026-05-08 17:34 | 49.73632 | 18.90583 | 25140 ft | 300 kts | 75° |
| 2026-05-08 17:34 | 49.74280 | 18.93659 | 25132 ft | 301 kts | 75° |
| 2026-05-08 17:35 | 49.74918 | 18.96702 | 25130 ft | 301 kts | 75° |
| 2026-05-08 17:35 | 49.75564 | 18.99780 | 25127 ft | 301 kts | 75° |
| 2026-05-08 17:35 | 49.76209 | 19.02862 | 25129 ft | 301 kts | 75° |
| 2026-05-08 17:35 | 49.77082 | 19.05784 | 25135 ft | 302 kts | 50° |
| 2026-05-08 17:36 | 49.78702 | 19.07811 | 25133 ft | 301 kts | 30° |
| 2026-05-08 17:36 | 49.80484 | 19.09519 | 25132 ft | 302 kts | 30° |
| 2026-05-08 17:36 | 49.82241 | 19.11309 | 25133 ft | 303 kts | 33° |
| 2026-05-08 17:36 | 49.83975 | 19.13158 | 25135 ft | 303 kts | 33° |
| 2026-05-08 17:37 | 49.85718 | 19.14990 | 25131 ft | 302 kts | 32° |
| 2026-05-08 17:37 | 49.87467 | 19.16800 | 25136 ft | 302 kts | 32° |
| 2026-05-08 17:37 | 49.89213 | 19.18614 | 25133 ft | 302 kts | 32° |
| 2026-05-08 17:37 | 49.90954 | 19.20438 | 25136 ft | 302 kts | 32° |
| 2026-05-08 17:38 | 49.92694 | 19.22260 | 25133 ft | 302 kts | 32° |
| 2026-05-08 17:38 | 49.94437 | 19.24082 | 25130 ft | 302 kts | 32° |
| 2026-05-08 17:38 | 49.96179 | 19.25904 | 25128 ft | 302 kts | 32° |
| 2026-05-08 17:38 | 49.97921 | 19.27720 | 25129 ft | 302 kts | 32° |
| 2026-05-08 17:39 | 49.99662 | 19.29545 | 25129 ft | 301 kts | 32° |
| 2026-05-08 17:39 | 50.01397 | 19.31370 | 25134 ft | 301 kts | 32° |
| 2026-05-08 17:39 | 50.03132 | 19.33194 | 25129 ft | 301 kts | 32° |
| 2026-05-08 17:39 | 50.04867 | 19.35018 | 25133 ft | 301 kts | 32° |
| 2026-05-08 17:40 | 50.06602 | 19.36846 | 25127 ft | 301 kts | 32° |
| 2026-05-08 17:40 | 50.08333 | 19.38673 | 25127 ft | 301 kts | 32° |
| 2026-05-08 17:40 | 50.10066 | 19.40501 | 25133 ft | 301 kts | 32° |
| 2026-05-08 17:40 | 50.11801 | 19.42331 | 25134 ft | 301 kts | 32° |
| 2026-05-08 17:41 | 50.13532 | 19.44161 | 25130 ft | 300 kts | 32° |
| 2026-05-08 17:41 | 50.15263 | 19.45992 | 25138 ft | 300 kts | 32° |
| 2026-05-08 17:41 | 50.16990 | 19.47820 | 25136 ft | 300 kts | 32° |
| 2026-05-08 17:41 | 50.18719 | 19.49652 | 25132 ft | 300 kts | 32° |
| 2026-05-08 17:42 | 50.20423 | 19.51460 | 25128 ft | 300 kts | 32° |
| 2026-05-08 17:42 | 50.22150 | 19.53293 | 25137 ft | 300 kts | 32° |
| 2026-05-08 17:42 | 50.23874 | 19.55124 | 25129 ft | 300 kts | 32° |
| 2026-05-08 17:42 | 50.25596 | 19.56956 | 25137 ft | 300 kts | 32° |
| 2026-05-08 17:43 | 50.27319 | 19.58790 | 25129 ft | 300 kts | 32° |
| 2026-05-08 17:43 | 50.29041 | 19.60624 | 25138 ft | 299 kts | 31° |
| 2026-05-08 17:43 | 50.30763 | 19.62460 | 25141 ft | 299 kts | 31° |
| 2026-05-08 17:43 | 50.32481 | 19.64294 | 25139 ft | 299 kts | 31° |
| 2026-05-08 17:44 | 50.34199 | 19.66129 | 25145 ft | 299 kts | 31° |
| 2026-05-08 17:44 | 50.35916 | 19.67963 | 25142 ft | 299 kts | 31° |
| 2026-05-08 17:44 | 50.37634 | 19.69803 | 25133 ft | 299 kts | 31° |
| 2026-05-08 17:44 | 50.39348 | 19.71638 | 25134 ft | 299 kts | 31° |
| 2026-05-08 17:45 | 50.41063 | 19.73477 | 25134 ft | 298 kts | 31° |
| 2026-05-08 17:45 | 50.42775 | 19.75314 | 25138 ft | 299 kts | 31° |
| 2026-05-08 17:45 | 50.44490 | 19.77155 | 25136 ft | 299 kts | 31° |
| 2026-05-08 17:45 | 50.46205 | 19.78999 | 25136 ft | 299 kts | 31° |
| 2026-05-08 17:46 | 50.47918 | 19.80842 | 25141 ft | 298 kts | 31° |
| 2026-05-08 17:46 | 50.49627 | 19.82681 | 25134 ft | 298 kts | 31° |
| 2026-05-08 17:46 | 50.51335 | 19.84522 | 25140 ft | 298 kts | 31° |
| 2026-05-08 17:46 | 50.53043 | 19.86365 | 25139 ft | 298 kts | 31° |
| 2026-05-08 17:47 | 50.54749 | 19.88208 | 25135 ft | 297 kts | 31° |
| 2026-05-08 17:47 | 50.56454 | 19.90050 | 25142 ft | 297 kts | 31° |
| 2026-05-08 17:47 | 50.58157 | 19.91891 | 25132 ft | 297 kts | 31° |
| 2026-05-08 17:47 | 50.59287 | 19.93114 | 25141 ft | 297 kts | 31° |
| 2026-05-08 17:48 | 50.61564 | 19.95581 | 25143 ft | 297 kts | 31° |
| 2026-05-08 17:48 | 50.63263 | 19.97423 | 25131 ft | 296 kts | 31° |
| 2026-05-08 17:48 | 50.65038 | 19.99023 | 25138 ft | 293 kts | 20° |
| 2026-05-08 17:48 | 50.66908 | 20.00299 | 25140 ft | 292 kts | 18° |
| 2026-05-08 17:49 | 50.68760 | 20.01636 | 25134 ft | 294 kts | 22° |
| 2026-05-08 17:49 | 50.70574 | 20.03123 | 25137 ft | 294 kts | 24° |
| 2026-05-08 17:49 | 50.72389 | 20.04606 | 25139 ft | 293 kts | 22° |
| 2026-05-08 17:49 | 50.74212 | 20.06039 | 25139 ft | 293 kts | 22° |
| 2026-05-08 17:50 | 50.76040 | 20.07472 | 25133 ft | 293 kts | 22° |
| 2026-05-08 17:50 | 50.77859 | 20.08919 | 25135 ft | 293 kts | 22° |
| 2026-05-08 17:50 | 50.79676 | 20.10369 | 25135 ft | 293 kts | 22° |
| 2026-05-08 17:50 | 50.81499 | 20.11818 | 25136 ft | 293 kts | 22° |
| 2026-05-08 17:51 | 50.83316 | 20.13263 | 25136 ft | 293 kts | 22° |
| 2026-05-08 17:51 | 50.85133 | 20.14710 | 25137 ft | 292 kts | 22° |
| 2026-05-08 17:51 | 50.86951 | 20.16159 | 25134 ft | 292 kts | 22° |
| 2026-05-08 17:51 | 50.88767 | 20.17609 | 25133 ft | 292 kts | 22° |
| 2026-05-08 17:52 | 50.90556 | 20.19039 | 25136 ft | 292 kts | 22° |
| 2026-05-08 17:52 | 50.92370 | 20.20488 | 25138 ft | 292 kts | 22° |
| 2026-05-08 17:52 | 50.95991 | 20.23387 | 25138 ft | 292 kts | 22° |
| 2026-05-08 17:53 | 50.97799 | 20.24836 | 25138 ft | 291 kts | 22° |
| 2026-05-08 17:53 | 50.99627 | 20.26299 | 24924 ft | 298 kts | 22° |
| 2026-05-08 17:53 | 51.01503 | 20.27804 | 24557 ft | 306 kts | 22° |
| 2026-05-08 17:53 | 51.03410 | 20.29340 | 24158 ft | 309 kts | 23° |
| 2026-05-08 17:54 | 51.05332 | 20.30890 | 23741 ft | 309 kts | 23° |
| 2026-05-08 17:54 | 51.07244 | 20.32431 | 23297 ft | 307 kts | 23° |
| 2026-05-08 17:54 | 51.09140 | 20.33960 | 22885 ft | 304 kts | 23° |
| 2026-05-08 17:54 | 51.11022 | 20.35477 | 22487 ft | 301 kts | 23° |
| 2026-05-08 17:55 | 51.12885 | 20.36981 | 22093 ft | 299 kts | 23° |
| 2026-05-08 17:55 | 51.14734 | 20.38473 | 21695 ft | 297 kts | 23° |
| 2026-05-08 17:55 | 51.16569 | 20.39959 | 21309 ft | 295 kts | 23° |
| 2026-05-08 17:55 | 51.18393 | 20.41439 | 20919 ft | 293 kts | 23° |
| 2026-05-08 17:56 | 51.20203 | 20.42905 | 20530 ft | 291 kts | 23° |
| 2026-05-08 17:56 | 51.21999 | 20.44360 | 20150 ft | 289 kts | 23° |
| 2026-05-08 17:56 | 51.23787 | 20.45812 | 19768 ft | 287 kts | 23° |
| 2026-05-08 17:56 | 51.25562 | 20.47254 | 19386 ft | 285 kts | 23° |
| 2026-05-08 17:57 | 51.27323 | 20.48687 | 19018 ft | 283 kts | 22° |
| 2026-05-08 17:57 | 51.29077 | 20.50114 | 18642 ft | 282 kts | 22° |
| 2026-05-08 17:57 | 51.30816 | 20.51531 | 18254 ft | 280 kts | 22° |
| 2026-05-08 17:57 | 51.32545 | 20.52941 | 17871 ft | 277 kts | 22° |
| 2026-05-08 17:58 | 51.34254 | 20.54336 | 17502 ft | 275 kts | 22° |
| 2026-05-08 17:58 | 51.35949 | 20.55719 | 17141 ft | 272 kts | 22° |
| 2026-05-08 17:58 | 51.37633 | 20.57095 | 16785 ft | 271 kts | 23° |
| 2026-05-08 17:58 | 51.39302 | 20.58461 | 16427 ft | 269 kts | 23° |
| 2026-05-08 17:59 | 51.40960 | 20.59819 | 16077 ft | 267 kts | 23° |
| 2026-05-08 17:59 | 51.42607 | 20.61168 | 15727 ft | 265 kts | 23° |
| 2026-05-08 17:59 | 51.44239 | 20.62507 | 15377 ft | 263 kts | 23° |
| 2026-05-08 17:59 | 51.45864 | 20.63840 | 15031 ft | 261 kts | 23° |
| 2026-05-08 18:00 | 51.47478 | 20.65166 | 14690 ft | 260 kts | 23° |
| 2026-05-08 18:00 | 51.50673 | 20.67794 | 14007 ft | 256 kts | 23° |
| 2026-05-08 18:00 | 51.52230 | 20.69076 | 13651 ft | 254 kts | 23° |
| 2026-05-08 18:01 | 51.53811 | 20.70379 | 13300 ft | 251 kts | 23° |
| 2026-05-08 18:01 | 51.55358 | 20.71655 | 12971 ft | 249 kts | 24° |
| 2026-05-08 18:01 | 51.56891 | 20.72920 | 12640 ft | 247 kts | 24° |
| 2026-05-08 18:01 | 51.58412 | 20.74176 | 12320 ft | 245 kts | 23° |
| 2026-05-08 18:02 | 51.59923 | 20.75424 | 12001 ft | 243 kts | 24° |
| 2026-05-08 18:02 | 51.60917 | 20.76247 | 11786 ft | 242 kts | 24° |
| 2026-05-08 18:02 | 51.62914 | 20.77898 | 11309 ft | 242 kts | 24° |
| 2026-05-08 18:02 | 51.64408 | 20.79137 | 10935 ft | 240 kts | 24° |
| 2026-05-08 18:03 | 51.65384 | 20.79947 | 10715 ft | 238 kts | 24° |
| 2026-05-08 18:03 | 51.66849 | 20.81162 | 10398 ft | 235 kts | 24° |
| 2026-05-08 18:03 | 51.68298 | 20.82364 | 10084 ft | 233 kts | 24° |
| 2026-05-08 18:03 | 51.69735 | 20.83557 | 9762 ft | 231 kts | 24° |
| 2026-05-08 18:04 | 51.71160 | 20.84742 | 9443 ft | 229 kts | 24° |
| 2026-05-08 18:04 | 51.72574 | 20.85918 | 9142 ft | 228 kts | 24° |
| 2026-05-08 18:04 | 51.73980 | 20.87087 | 8843 ft | 227 kts | 24° |
| 2026-05-08 18:04 | 51.75380 | 20.88254 | 8545 ft | 226 kts | 24° |
| 2026-05-08 18:05 | 51.76771 | 20.89414 | 8256 ft | 225 kts | 24° |
| 2026-05-08 18:05 | 51.78159 | 20.90572 | 7951 ft | 224 kts | 24° |
| 2026-05-08 18:05 | 51.79539 | 20.91723 | 7657 ft | 223 kts | 24° |
| 2026-05-08 18:05 | 51.80912 | 20.92870 | 7366 ft | 222 kts | 24° |
| 2026-05-08 18:06 | 51.82278 | 20.94012 | 7073 ft | 221 kts | 24° |
| 2026-05-08 18:06 | 51.83640 | 20.95150 | 6787 ft | 220 kts | 24° |
| 2026-05-08 18:06 | 51.84997 | 20.96287 | 6492 ft | 219 kts | 24° |
| 2026-05-08 18:06 | 51.86345 | 20.97418 | 6189 ft | 218 kts | 24° |
| 2026-05-08 18:07 | 51.87688 | 20.98542 | 5899 ft | 216 kts | 24° |
| 2026-05-08 18:07 | 51.89018 | 20.99657 | 5615 ft | 212 kts | 24° |
| 2026-05-08 18:07 | 51.90301 | 21.00736 | 5343 ft | 209 kts | 24° |
| 2026-05-08 18:07 | 51.91572 | 21.01804 | 5068 ft | 201 kts | 25° |
| 2026-05-08 18:08 | 51.92827 | 21.02856 | 4794 ft | 205 kts | 24° |
| 2026-05-08 18:08 | 51.94093 | 21.03919 | 4507 ft | 205 kts | 25° |
| 2026-05-08 18:08 | 51.95351 | 21.04972 | 4248 ft | 203 kts | 25° |
| 2026-05-08 18:08 | 51.96603 | 21.06015 | 3981 ft | 201 kts | 25° |
| 2026-05-08 18:09 | 51.97843 | 21.07043 | 3712 ft | 199 kts | 25° |
| 2026-05-08 18:09 | 51.99076 | 21.08058 | 3452 ft | 198 kts | 24° |
| 2026-05-08 18:09 | 52.00300 | 21.09063 | 3185 ft | 196 kts | 25° |
| 2026-05-08 18:09 | 52.01514 | 21.09982 | 3040 ft | 187 kts | 12° |
| 2026-05-08 18:10 | 52.02665 | 21.09654 | 3026 ft | 161 kts | 319° |
| 2026-05-08 18:10 | 52.03460 | 21.08290 | 3006 ft | 168 kts | 324° |
| 2026-05-08 18:10 | 52.04424 | 21.07386 | 2893 ft | 158 kts | 330° |
| 2026-05-08 18:10 | 52.05383 | 21.06501 | 2673 ft | 159 kts | 331° |
| 2026-05-08 18:11 | 52.06362 | 21.05633 | 2465 ft | 162 kts | 333° |
| 2026-05-08 18:11 | 52.07332 | 21.04784 | 2242 ft | 155 kts | 333° |
| 2026-05-08 18:11 | 52.08286 | 21.03955 | 2032 ft | 156 kts | 332° |
| 2026-05-08 18:11 | 52.09238 | 21.03122 | 1815 ft | 152 kts | 334° |
| 2026-05-08 18:12 | 52.10166 | 21.02317 | 1608 ft | 151 kts | 332° |
| 2026-05-08 18:12 | 52.11087 | 21.01513 | 1396 ft | 146 kts | 334° |
| 2026-05-08 18:12 | 52.11938 | 21.00778 | 1194 ft | 133 kts | 333° |
| 2026-05-08 18:12 | 52.12734 | 21.00072 | 1014 ft | 128 kts | 333° |
| 2026-05-08 18:13 | 52.13513 | 20.99388 | 838 ft | 127 kts | 334° |
| 2026-05-08 18:13 | 52.14276 | 20.98728 | 674 ft | 123 kts | 333° |
| 2026-05-08 18:13 | 52.15045 | 20.98057 | 515 ft | 126 kts | 334° |
| 2026-05-08 18:13 | 52.15792 | 20.97408 | 371 ft | 108 kts | 333° |
| 2026-05-08 18:14 | 52.16351 | 20.96929 | 357 ft | 77 kts | 329° |
| 2026-05-08 18:14 | 52.16736 | 20.96575 | 358 ft | 34 kts | 337° |
| 2026-05-08 18:14 | 52.16991 | 20.96513 | 356 ft | 32 kts | 1° |
| 2026-05-08 18:14 | 52.17037 | 20.96516 | 356 ft | 0 kts | 6° |
| 2026-05-08 18:15 | 52.17066 | 20.96528 | 357 ft | 8 kts | 31° |
| 2026-05-08 18:16 | 52.17128 | 20.96608 | 357 ft | 16 kts | 0° |
| 2026-05-08 18:16 | 52.17253 | 20.96518 | 363 ft | 24 kts | 331° |
| 2026-05-08 18:16 | 52.17395 | 20.96393 | 357 ft | 18 kts | 331° |
| 2026-05-08 18:16 | 52.17495 | 20.96308 | 357 ft | 20 kts | 333° |
| 2026-05-08 18:17 | 52.17634 | 20.96185 | 357 ft | 21 kts | 332° |
| 2026-05-08 18:17 | 52.17757 | 20.96080 | 357 ft | 22 kts | 330° |
| 2026-05-08 18:17 | 52.17908 | 20.95946 | 357 ft | 23 kts | 334° |
| 2026-05-08 18:17 | 52.17980 | 20.96001 | 357 ft | 16 kts | 80° |
| 2026-05-08 18:18 | 52.18006 | 20.96202 | 360 ft | 14 kts | 69° |
| 2026-05-08 18:18 | 52.18045 | 20.96194 | 357 ft | 0 kts | 278° |